sensor_id;sensor_type;location;lat;lon;timestamp;P1;durP1;ratioP1;P2;durP2;ratioP2
61702;SDS011;47622;47.726;3.298;2022-10-16T00:03:37;6.57;;;3.00;;
61702;SDS011;47622;47.726;3.298;2022-10-16T00:06:07;4.88;;;2.90;;
61702;SDS011;47622;47.726;3.298;2022-10-16T00:08:34;6.60;;;2.90;;
61702;SDS011;47622;47.726;3.298;2022-10-16T00:11:03;6.25;;;3.00;;
61702;SDS011;47622;47.726;3.298;2022-10-16T00:13:31;4.10;;;2.75;;
61702;SDS011;47622;47.726;3.298;2022-10-16T00:15:59;5.50;;;2.90;;
61702;SDS011;47622;47.726;3.298;2022-10-16T00:18:25;4.03;;;3.00;;
61702;SDS011;47622;47.726;3.298;2022-10-16T00:20:52;6.75;;;4.90;;
61702;SDS011;47622;47.726;3.298;2022-10-16T00:23:19;6.88;;;5.50;;
61702;SDS011;47622;47.726;3.298;2022-10-16T00:25:45;6.68;;;5.97;;
61702;SDS011;47622;47.726;3.298;2022-10-16T00:28:20;7.68;;;6.28;;
61702;SDS011;47622;47.726;3.298;2022-10-16T00:30:46;11.32;;;5.20;;
61702;SDS011;47622;47.726;3.298;2022-10-16T00:33:11;6.57;;;3.92;;
61702;SDS011;47622;47.726;3.298;2022-10-16T00:35:37;4.90;;;3.40;;
61702;SDS011;47622;47.726;3.298;2022-10-16T00:38:03;5.00;;;3.15;;
61702;SDS011;47622;47.726;3.298;2022-10-16T00:40:29;7.95;;;3.83;;
61702;SDS011;47622;47.726;3.298;2022-10-16T00:42:55;5.90;;;3.58;;
61702;SDS011;47622;47.726;3.298;2022-10-16T00:45:21;3.60;;;3.13;;
61702;SDS011;47622;47.726;3.298;2022-10-16T00:47:47;4.88;;;3.45;;
61702;SDS011;47622;47.726;3.298;2022-10-16T00:50:32;6.32;;;3.45;;
61702;SDS011;47622;47.726;3.298;2022-10-16T00:53:00;4.38;;;3.45;;
61702;SDS011;47622;47.726;3.298;2022-10-16T00:55:28;5.13;;;3.20;;
61702;SDS011;47622;47.726;3.298;2022-10-16T00:57:55;6.95;;;3.20;;
61702;SDS011;47622;47.726;3.298;2022-10-16T01:00:24;4.22;;;2.90;;
61702;SDS011;47622;47.726;3.298;2022-10-16T01:03:01;5.68;;;3.20;;
61702;SDS011;47622;47.726;3.298;2022-10-16T01:05:43;4.82;;;2.90;;
61702;SDS011;47622;47.726;3.298;2022-10-16T01:08:18;3.92;;;2.85;;
61702;SDS011;47622;47.726;3.298;2022-10-16T01:11:05;3.88;;;3.13;;
61702;SDS011;47622;47.726;3.298;2022-10-16T01:13:43;9.40;;;2.90;;
61702;SDS011;47622;47.726;3.298;2022-10-16T01:16:29;8.15;;;3.00;;
61702;SDS011;47622;47.726;3.298;2022-10-16T01:19:20;7.30;;;3.10;;
61702;SDS011;47622;47.726;3.298;2022-10-16T01:22:15;3.55;;;2.97;;
61702;SDS011;47622;47.726;3.298;2022-10-16T01:24:45;4.68;;;2.75;;
61702;SDS011;47622;47.726;3.298;2022-10-16T01:27:20;5.03;;;2.92;;
61702;SDS011;47622;47.726;3.298;2022-10-16T01:33:01;5.05;;;2.95;;
61702;SDS011;47622;47.726;3.298;2022-10-16T01:35:37;5.43;;;2.95;;
61702;SDS011;47622;47.726;3.298;2022-10-16T01:38:12;3.95;;;2.90;;
61702;SDS011;47622;47.726;3.298;2022-10-16T01:40:45;3.30;;;2.85;;
61702;SDS011;47622;47.726;3.298;2022-10-16T01:43:15;3.00;;;2.38;;
61702;SDS011;47622;47.726;3.298;2022-10-16T01:45:45;4.40;;;2.65;;
61702;SDS011;47622;47.726;3.298;2022-10-16T01:48:15;4.43;;;2.50;;
61702;SDS011;47622;47.726;3.298;2022-10-16T01:50:43;4.47;;;2.47;;
61702;SDS011;47622;47.726;3.298;2022-10-16T01:53:14;2.78;;;2.30;;
61702;SDS011;47622;47.726;3.298;2022-10-16T01:55:43;4.57;;;2.42;;
61702;SDS011;47622;47.726;3.298;2022-10-16T01:58:11;3.40;;;2.72;;
61702;SDS011;47622;47.726;3.298;2022-10-16T02:00:40;3.72;;;2.80;;
61702;SDS011;47622;47.726;3.298;2022-10-16T02:03:09;7.20;;;3.30;;
61702;SDS011;47622;47.726;3.298;2022-10-16T02:05:39;4.45;;;3.20;;
61702;SDS011;47622;47.726;3.298;2022-10-16T02:08:10;5.35;;;3.60;;
61702;SDS011;47622;47.726;3.298;2022-10-16T02:10:36;4.80;;;3.45;;
61702;SDS011;47622;47.726;3.298;2022-10-16T02:13:07;6.55;;;3.20;;
61702;SDS011;47622;47.726;3.298;2022-10-16T02:15:34;5.50;;;3.63;;
61702;SDS011;47622;47.726;3.298;2022-10-16T02:18:01;3.58;;;2.78;;
61702;SDS011;47622;47.726;3.298;2022-10-16T02:20:28;8.18;;;3.28;;
61702;SDS011;47622;47.726;3.298;2022-10-16T02:23:00;3.72;;;3.03;;
61702;SDS011;47622;47.726;3.298;2022-10-16T02:25:32;4.05;;;3.47;;
61702;SDS011;47622;47.726;3.298;2022-10-16T02:28:19;6.03;;;3.53;;
61702;SDS011;47622;47.726;3.298;2022-10-16T02:31:08;4.82;;;3.40;;
61702;SDS011;47622;47.726;3.298;2022-10-16T02:33:37;6.20;;;3.20;;
61702;SDS011;47622;47.726;3.298;2022-10-16T02:36:05;4.72;;;3.60;;
61702;SDS011;47622;47.726;3.298;2022-10-16T02:38:32;4.45;;;2.85;;
61702;SDS011;47622;47.726;3.298;2022-10-16T02:40:59;6.43;;;3.22;;
61702;SDS011;47622;47.726;3.298;2022-10-16T02:43:24;5.53;;;3.05;;
61702;SDS011;47622;47.726;3.298;2022-10-16T02:45:51;3.88;;;3.30;;
61702;SDS011;47622;47.726;3.298;2022-10-16T02:48:16;5.55;;;3.17;;
61702;SDS011;47622;47.726;3.298;2022-10-16T02:50:42;6.07;;;3.10;;
61702;SDS011;47622;47.726;3.298;2022-10-16T02:53:07;4.78;;;2.90;;
61702;SDS011;47622;47.726;3.298;2022-10-16T02:55:33;3.28;;;2.97;;
61702;SDS011;47622;47.726;3.298;2022-10-16T02:57:59;4.30;;;2.90;;
61702;SDS011;47622;47.726;3.298;2022-10-16T03:00:24;4.90;;;2.85;;
61702;SDS011;47622;47.726;3.298;2022-10-16T03:02:50;5.50;;;3.10;;
61702;SDS011;47622;47.726;3.298;2022-10-16T03:05:16;7.68;;;3.20;;
61702;SDS011;47622;47.726;3.298;2022-10-16T03:07:42;3.42;;;2.90;;
61702;SDS011;47622;47.726;3.298;2022-10-16T03:10:08;3.60;;;3.05;;
61702;SDS011;47622;47.726;3.298;2022-10-16T03:12:34;5.70;;;3.13;;
61702;SDS011;47622;47.726;3.298;2022-10-16T03:15:00;4.80;;;2.97;;
61702;SDS011;47622;47.726;3.298;2022-10-16T03:17:25;3.22;;;2.90;;
61702;SDS011;47622;47.726;3.298;2022-10-16T03:19:51;5.40;;;2.80;;
61702;SDS011;47622;47.726;3.298;2022-10-16T03:22:17;3.40;;;2.97;;
61702;SDS011;47622;47.726;3.298;2022-10-16T03:24:42;4.60;;;2.90;;
61702;SDS011;47622;47.726;3.298;2022-10-16T03:27:08;3.67;;;2.88;;
61702;SDS011;47622;47.726;3.298;2022-10-16T03:29:34;3.40;;;2.80;;
61702;SDS011;47622;47.726;3.298;2022-10-16T03:31:59;4.30;;;3.90;;
61702;SDS011;47622;47.726;3.298;2022-10-16T03:34:25;6.13;;;3.08;;
61702;SDS011;47622;47.726;3.298;2022-10-16T03:36:51;5.32;;;2.78;;
61702;SDS011;47622;47.726;3.298;2022-10-16T03:39:17;3.65;;;2.80;;
61702;SDS011;47622;47.726;3.298;2022-10-16T03:41:43;5.20;;;3.10;;
61702;SDS011;47622;47.726;3.298;2022-10-16T03:44:09;5.03;;;3.35;;
61702;SDS011;47622;47.726;3.298;2022-10-16T03:46:34;3.75;;;3.05;;
61702;SDS011;47622;47.726;3.298;2022-10-16T03:49:00;4.45;;;3.10;;
61702;SDS011;47622;47.726;3.298;2022-10-16T03:51:26;6.13;;;3.40;;
61702;SDS011;47622;47.726;3.298;2022-10-16T03:53:51;3.25;;;2.92;;
61702;SDS011;47622;47.726;3.298;2022-10-16T03:56:18;3.90;;;3.50;;
61702;SDS011;47622;47.726;3.298;2022-10-16T03:58:43;4.80;;;3.72;;
61702;SDS011;47622;47.726;3.298;2022-10-16T04:01:09;5.15;;;3.20;;
61702;SDS011;47622;47.726;3.298;2022-10-16T04:03:35;5.68;;;3.17;;
61702;SDS011;47622;47.726;3.298;2022-10-16T04:06:00;6.68;;;3.70;;
61702;SDS011;47622;47.726;3.298;2022-10-16T04:08:26;5.68;;;3.22;;
61702;SDS011;47622;47.726;3.298;2022-10-16T04:10:51;4.45;;;3.38;;
61702;SDS011;47622;47.726;3.298;2022-10-16T04:13:17;3.95;;;3.53;;
61702;SDS011;47622;47.726;3.298;2022-10-16T04:15:44;5.45;;;3.00;;
61702;SDS011;47622;47.726;3.298;2022-10-16T04:18:10;7.25;;;2.80;;
61702;SDS011;47622;47.726;3.298;2022-10-16T04:20:35;6.75;;;3.30;;
61702;SDS011;47622;47.726;3.298;2022-10-16T04:23:01;5.63;;;2.83;;
61702;SDS011;47622;47.726;3.298;2022-10-16T04:25:27;2.75;;;2.40;;
61702;SDS011;47622;47.726;3.298;2022-10-16T04:27:53;8.57;;;3.00;;
61702;SDS011;47622;47.726;3.298;2022-10-16T04:30:19;7.88;;;2.95;;
61702;SDS011;47622;47.726;3.298;2022-10-16T04:32:52;7.18;;;3.30;;
61702;SDS011;47622;47.726;3.298;2022-10-16T04:35:18;4.75;;;2.92;;
61702;SDS011;47622;47.726;3.298;2022-10-16T04:37:44;4.50;;;2.85;;
61702;SDS011;47622;47.726;3.298;2022-10-16T04:40:10;5.88;;;3.00;;
61702;SDS011;47622;47.726;3.298;2022-10-16T04:42:40;7.55;;;3.05;;
61702;SDS011;47622;47.726;3.298;2022-10-16T04:45:06;7.72;;;3.20;;
61702;SDS011;47622;47.726;3.298;2022-10-16T04:47:33;5.38;;;3.25;;
61702;SDS011;47622;47.726;3.298;2022-10-16T04:49:58;5.10;;;3.35;;
61702;SDS011;47622;47.726;3.298;2022-10-16T04:52:27;3.85;;;2.97;;
61702;SDS011;47622;47.726;3.298;2022-10-16T04:54:53;3.97;;;3.13;;
61702;SDS011;47622;47.726;3.298;2022-10-16T04:57:20;3.50;;;3.20;;
61702;SDS011;47622;47.726;3.298;2022-10-16T04:59:46;4.82;;;3.53;;
61702;SDS011;47622;47.726;3.298;2022-10-16T05:02:11;6.65;;;3.45;;
61702;SDS011;47622;47.726;3.298;2022-10-16T05:04:37;4.60;;;2.60;;
61702;SDS011;47622;47.726;3.298;2022-10-16T05:07:02;5.70;;;2.95;;
61702;SDS011;47622;47.726;3.298;2022-10-16T05:09:28;4.20;;;2.90;;
61702;SDS011;47622;47.726;3.298;2022-10-16T05:11:54;5.18;;;3.08;;
61702;SDS011;47622;47.726;3.298;2022-10-16T05:14:20;3.92;;;3.10;;
61702;SDS011;47622;47.726;3.298;2022-10-16T05:16:45;4.38;;;3.20;;
61702;SDS011;47622;47.726;3.298;2022-10-16T05:19:13;6.75;;;3.53;;
61702;SDS011;47622;47.726;3.298;2022-10-16T05:21:38;8.88;;;3.33;;
61702;SDS011;47622;47.726;3.298;2022-10-16T05:24:04;6.53;;;3.50;;
61702;SDS011;47622;47.726;3.298;2022-10-16T05:26:30;5.28;;;3.40;;
61702;SDS011;47622;47.726;3.298;2022-10-16T05:28:55;4.95;;;3.50;;
61702;SDS011;47622;47.726;3.298;2022-10-16T05:31:22;3.72;;;2.90;;
61702;SDS011;47622;47.726;3.298;2022-10-16T05:33:48;4.38;;;3.28;;
61702;SDS011;47622;47.726;3.298;2022-10-16T05:36:13;5.30;;;3.38;;
61702;SDS011;47622;47.726;3.298;2022-10-16T05:38:39;4.45;;;3.33;;
61702;SDS011;47622;47.726;3.298;2022-10-16T05:41:05;3.53;;;2.70;;
61702;SDS011;47622;47.726;3.298;2022-10-16T05:43:31;3.67;;;2.70;;
61702;SDS011;47622;47.726;3.298;2022-10-16T05:45:57;4.30;;;2.60;;
61702;SDS011;47622;47.726;3.298;2022-10-16T05:48:26;6.82;;;2.58;;
61702;SDS011;47622;47.726;3.298;2022-10-16T05:51:02;7.15;;;2.75;;
61702;SDS011;47622;47.726;3.298;2022-10-16T05:53:30;3.75;;;2.55;;
61702;SDS011;47622;47.726;3.298;2022-10-16T05:55:57;5.03;;;2.85;;
61702;SDS011;47622;47.726;3.298;2022-10-16T05:58:24;3.28;;;2.95;;
61702;SDS011;47622;47.726;3.298;2022-10-16T06:00:54;10.60;;;3.00;;
61702;SDS011;47622;47.726;3.298;2022-10-16T06:03:25;3.58;;;3.00;;
61702;SDS011;47622;47.726;3.298;2022-10-16T06:05:50;3.08;;;2.40;;
61702;SDS011;47622;47.726;3.298;2022-10-16T06:08:17;6.20;;;2.90;;
61702;SDS011;47622;47.726;3.298;2022-10-16T06:10:43;6.97;;;2.83;;
61702;SDS011;47622;47.726;3.298;2022-10-16T06:13:10;5.78;;;2.80;;
61702;SDS011;47622;47.726;3.298;2022-10-16T06:15:36;6.30;;;4.75;;
61702;SDS011;47622;47.726;3.298;2022-10-16T06:18:04;3.83;;;3.40;;
61702;SDS011;47622;47.726;3.298;2022-10-16T06:20:30;3.50;;;3.08;;
61702;SDS011;47622;47.726;3.298;2022-10-16T06:22:56;3.58;;;2.92;;
61702;SDS011;47622;47.726;3.298;2022-10-16T06:25:22;2.85;;;2.60;;
61702;SDS011;47622;47.726;3.298;2022-10-16T06:27:48;4.13;;;2.85;;
61702;SDS011;47622;47.726;3.298;2022-10-16T06:30:14;4.35;;;2.70;;
61702;SDS011;47622;47.726;3.298;2022-10-16T06:32:39;3.10;;;2.80;;
61702;SDS011;47622;47.726;3.298;2022-10-16T06:35:05;3.60;;;2.80;;
61702;SDS011;47622;47.726;3.298;2022-10-16T06:37:31;5.55;;;3.10;;
61702;SDS011;47622;47.726;3.298;2022-10-16T06:39:57;4.32;;;3.03;;
61702;SDS011;47622;47.726;3.298;2022-10-16T06:42:22;3.13;;;2.83;;
61702;SDS011;47622;47.726;3.298;2022-10-16T06:44:48;5.57;;;2.78;;
61702;SDS011;47622;47.726;3.298;2022-10-16T06:47:14;3.97;;;2.92;;
61702;SDS011;47622;47.726;3.298;2022-10-16T06:49:39;4.55;;;3.00;;
61702;SDS011;47622;47.726;3.298;2022-10-16T06:52:05;3.90;;;2.58;;
61702;SDS011;47622;47.726;3.298;2022-10-16T06:54:31;4.07;;;3.05;;
61702;SDS011;47622;47.726;3.298;2022-10-16T06:56:56;5.38;;;2.97;;
61702;SDS011;47622;47.726;3.298;2022-10-16T06:59:22;4.82;;;3.22;;
61702;SDS011;47622;47.726;3.298;2022-10-16T07:01:48;2.92;;;2.63;;
61702;SDS011;47622;47.726;3.298;2022-10-16T07:04:14;5.78;;;2.80;;
61702;SDS011;47622;47.726;3.298;2022-10-16T07:06:39;4.25;;;2.78;;
61702;SDS011;47622;47.726;3.298;2022-10-16T07:09:06;6.95;;;2.90;;
61702;SDS011;47622;47.726;3.298;2022-10-16T07:11:34;7.07;;;3.78;;
61702;SDS011;47622;47.726;3.298;2022-10-16T07:14:03;4.97;;;4.30;;
61702;SDS011;47622;47.726;3.298;2022-10-16T07:16:30;7.53;;;4.18;;
61702;SDS011;47622;47.726;3.298;2022-10-16T07:18:59;6.75;;;4.03;;
61702;SDS011;47622;47.726;3.298;2022-10-16T07:21:29;4.78;;;3.20;;
61702;SDS011;47622;47.726;3.298;2022-10-16T07:24:04;5.10;;;3.00;;
61702;SDS011;47622;47.726;3.298;2022-10-16T07:26:32;5.90;;;3.40;;
61702;SDS011;47622;47.726;3.298;2022-10-16T07:29:01;8.48;;;2.80;;
61702;SDS011;47622;47.726;3.298;2022-10-16T07:31:27;5.95;;;3.40;;
61702;SDS011;47622;47.726;3.298;2022-10-16T07:33:53;4.47;;;3.03;;
61702;SDS011;47622;47.726;3.298;2022-10-16T07:36:20;5.28;;;3.35;;
61702;SDS011;47622;47.726;3.298;2022-10-16T07:38:46;4.25;;;2.88;;
61702;SDS011;47622;47.726;3.298;2022-10-16T07:41:13;5.30;;;3.20;;
61702;SDS011;47622;47.726;3.298;2022-10-16T07:43:45;5.80;;;3.20;;
61702;SDS011;47622;47.726;3.298;2022-10-16T07:46:14;4.15;;;2.97;;
61702;SDS011;47622;47.726;3.298;2022-10-16T07:48:41;4.65;;;3.10;;
61702;SDS011;47622;47.726;3.298;2022-10-16T07:51:11;4.18;;;3.45;;
61702;SDS011;47622;47.726;3.298;2022-10-16T07:53:37;8.63;;;3.58;;
61702;SDS011;47622;47.726;3.298;2022-10-16T07:56:04;4.28;;;3.30;;
61702;SDS011;47622;47.726;3.298;2022-10-16T07:58:31;4.18;;;2.88;;
61702;SDS011;47622;47.726;3.298;2022-10-16T08:00:58;7.43;;;3.38;;
61702;SDS011;47622;47.726;3.298;2022-10-16T08:03:24;4.18;;;3.20;;
61702;SDS011;47622;47.726;3.298;2022-10-16T08:05:50;5.68;;;2.88;;
61702;SDS011;47622;47.726;3.298;2022-10-16T08:08:17;4.63;;;3.50;;
61702;SDS011;47622;47.726;3.298;2022-10-16T08:10:44;4.93;;;3.50;;
61702;SDS011;47622;47.726;3.298;2022-10-16T08:13:10;4.93;;;3.10;;
61702;SDS011;47622;47.726;3.298;2022-10-16T08:15:36;6.95;;;3.50;;
61702;SDS011;47622;47.726;3.298;2022-10-16T08:18:02;4.20;;;2.85;;
61702;SDS011;47622;47.726;3.298;2022-10-16T08:20:30;5.15;;;3.40;;
61702;SDS011;47622;47.726;3.298;2022-10-16T08:23:01;3.75;;;3.15;;
61702;SDS011;47622;47.726;3.298;2022-10-16T08:25:28;5.95;;;3.33;;
61702;SDS011;47622;47.726;3.298;2022-10-16T08:27:53;4.65;;;3.28;;
61702;SDS011;47622;47.726;3.298;2022-10-16T08:30:20;7.10;;;3.58;;
61702;SDS011;47622;47.726;3.298;2022-10-16T08:32:47;6.82;;;3.10;;
61702;SDS011;47622;47.726;3.298;2022-10-16T08:35:13;3.92;;;3.13;;
61702;SDS011;47622;47.726;3.298;2022-10-16T08:37:40;6.22;;;3.55;;
61702;SDS011;47622;47.726;3.298;2022-10-16T08:40:06;5.97;;;3.80;;
61702;SDS011;47622;47.726;3.298;2022-10-16T08:48:46;8.60;;;2.90;;
61702;SDS011;47622;47.726;3.298;2022-10-16T08:51:18;9.52;;;2.97;;
61702;SDS011;47622;47.726;3.298;2022-10-16T08:53:58;7.13;;;3.03;;
61702;SDS011;47622;47.726;3.298;2022-10-16T08:56:28;5.22;;;2.65;;
61702;SDS011;47622;47.726;3.298;2022-10-16T08:58:54;5.65;;;2.67;;
61702;SDS011;47622;47.726;3.298;2022-10-16T09:01:22;6.22;;;2.58;;
61702;SDS011;47622;47.726;3.298;2022-10-16T09:06:50;7.10;;;2.78;;
61702;SDS011;47622;47.726;3.298;2022-10-16T09:23:14;5.93;;;2.65;;
61702;SDS011;47622;47.726;3.298;2022-10-16T09:25:45;4.55;;;2.60;;
61702;SDS011;47622;47.726;3.298;2022-10-16T09:28:14;3.90;;;2.47;;
61702;SDS011;47622;47.726;3.298;2022-10-16T09:30:41;5.90;;;3.28;;
61702;SDS011;47622;47.726;3.298;2022-10-16T09:33:09;9.65;;;3.50;;
61702;SDS011;47622;47.726;3.298;2022-10-16T09:35:46;7.32;;;3.83;;
61702;SDS011;47622;47.726;3.298;2022-10-16T09:40:51;6.75;;;4.45;;
61702;SDS011;47622;47.726;3.298;2022-10-16T09:43:25;9.98;;;3.85;;
61702;SDS011;47622;47.726;3.298;2022-10-16T09:46:01;8.95;;;3.45;;
61702;SDS011;47622;47.726;3.298;2022-10-16T09:48:36;14.73;;;4.97;;
61702;SDS011;47622;47.726;3.298;2022-10-16T09:51:06;8.43;;;4.38;;
61702;SDS011;47622;47.726;3.298;2022-10-16T09:53:42;10.50;;;5.00;;
61702;SDS011;47622;47.726;3.298;2022-10-16T09:56:24;12.30;;;5.07;;
61702;SDS011;47622;47.726;3.298;2022-10-16T09:59:11;10.77;;;4.53;;
61702;SDS011;47622;47.726;3.298;2022-10-16T10:01:39;9.15;;;4.68;;
61702;SDS011;47622;47.726;3.298;2022-10-16T10:04:08;6.35;;;3.80;;
61702;SDS011;47622;47.726;3.298;2022-10-16T10:06:44;6.35;;;3.53;;
61702;SDS011;47622;47.726;3.298;2022-10-16T10:22:24;4.57;;;2.50;;
61702;SDS011;47622;47.726;3.298;2022-10-16T10:27:41;4.50;;;2.40;;
61702;SDS011;47622;47.726;3.298;2022-10-16T10:30:53;5.10;;;2.20;;
61702;SDS011;47622;47.726;3.298;2022-10-16T10:38:54;5.72;;;2.65;;
61702;SDS011;47622;47.726;3.298;2022-10-16T10:41:41;8.85;;;3.17;;
61702;SDS011;47622;47.726;3.298;2022-10-16T10:47:21;8.20;;;2.40;;
61702;SDS011;47622;47.726;3.298;2022-10-16T10:52:39;5.38;;;2.20;;
61702;SDS011;47622;47.726;3.298;2022-10-16T10:55:24;7.22;;;1.90;;
61702;SDS011;47622;47.726;3.298;2022-10-16T10:58:03;4.13;;;1.80;;
61702;SDS011;47622;47.726;3.298;2022-10-16T11:03:53;7.63;;;1.77;;
61702;SDS011;47622;47.726;3.298;2022-10-16T11:06:33;3.10;;;1.50;;
61702;SDS011;47622;47.726;3.298;2022-10-16T11:15:04;1.40;;;1.25;;
61702;SDS011;47622;47.726;3.298;2022-10-16T11:18:40;7.70;;;1.83;;
61702;SDS011;47622;47.726;3.298;2022-10-16T11:26:05;3.67;;;1.40;;
61702;SDS011;47622;47.726;3.298;2022-10-16T11:28:45;4.88;;;1.60;;
61702;SDS011;47622;47.726;3.298;2022-10-16T11:31:31;6.05;;;1.98;;
61702;SDS011;47622;47.726;3.298;2022-10-16T11:34:09;16.70;;;8.32;;
61702;SDS011;47622;47.726;3.298;2022-10-16T11:39:30;5.97;;;1.67;;
61702;SDS011;47622;47.726;3.298;2022-10-16T11:42:01;4.30;;;1.45;;
61702;SDS011;47622;47.726;3.298;2022-10-16T11:44:57;2.42;;;1.40;;
61702;SDS011;47622;47.726;3.298;2022-10-16T11:47:48;3.95;;;1.58;;
61702;SDS011;47622;47.726;3.298;2022-10-16T11:50:23;2.53;;;1.40;;
61702;SDS011;47622;47.726;3.298;2022-10-16T11:55:32;4.65;;;1.77;;
61702;SDS011;47622;47.726;3.298;2022-10-16T11:58:25;3.95;;;1.45;;
61702;SDS011;47622;47.726;3.298;2022-10-16T12:11:50;5.75;;;1.60;;
61702;SDS011;47622;47.726;3.298;2022-10-16T12:16:51;2.33;;;1.63;;
61702;SDS011;47622;47.726;3.298;2022-10-16T12:19:28;3.83;;;1.35;;
61702;SDS011;47622;47.726;3.298;2022-10-16T12:22:01;2.45;;;1.50;;
61702;SDS011;47622;47.726;3.298;2022-10-16T12:24:39;6.35;;;1.70;;
61702;SDS011;47622;47.726;3.298;2022-10-16T12:30:03;2.85;;;1.60;;
61702;SDS011;47622;47.726;3.298;2022-10-16T12:32:34;4.00;;;1.75;;
61702;SDS011;47622;47.726;3.298;2022-10-16T12:35:02;2.83;;;1.50;;
61702;SDS011;47622;47.726;3.298;2022-10-16T12:37:33;5.32;;;1.75;;
61702;SDS011;47622;47.726;3.298;2022-10-16T12:40:46;3.47;;;1.67;;
61702;SDS011;47622;47.726;3.298;2022-10-16T12:42:52;2.95;;;1.73;;
61702;SDS011;47622;47.726;3.298;2022-10-16T12:45:28;4.90;;;1.52;;
61702;SDS011;47622;47.726;3.298;2022-10-16T12:47:57;2.50;;;1.80;;
61702;SDS011;47622;47.726;3.298;2022-10-16T12:53:00;5.72;;;1.70;;
61702;SDS011;47622;47.726;3.298;2022-10-16T12:55:27;2.95;;;1.88;;
61702;SDS011;47622;47.726;3.298;2022-10-16T13:11:20;3.45;;;1.75;;
61702;SDS011;47622;47.726;3.298;2022-10-16T13:16:50;3.85;;;1.90;;
61702;SDS011;47622;47.726;3.298;2022-10-16T13:19:22;3.05;;;2.03;;
61702;SDS011;47622;47.726;3.298;2022-10-16T13:24:33;3.03;;;2.00;;
61702;SDS011;47622;47.726;3.298;2022-10-16T13:30:02;2.55;;;1.90;;
61702;SDS011;47622;47.726;3.298;2022-10-16T13:35:59;5.25;;;1.95;;
61702;SDS011;47622;47.726;3.298;2022-10-16T13:38:27;3.22;;;1.98;;
61702;SDS011;47622;47.726;3.298;2022-10-16T13:41:12;2.78;;;1.98;;
61702;SDS011;47622;47.726;3.298;2022-10-16T13:43:47;4.13;;;2.30;;
61702;SDS011;47622;47.726;3.298;2022-10-16T13:46:17;3.90;;;2.00;;
61702;SDS011;47622;47.726;3.298;2022-10-16T13:49:02;2.10;;;1.90;;
61702;SDS011;47622;47.726;3.298;2022-10-16T13:51:30;4.22;;;2.28;;
61702;SDS011;47622;47.726;3.298;2022-10-16T13:53:57;7.57;;;2.10;;
61702;SDS011;47622;47.726;3.298;2022-10-16T13:56:27;3.63;;;2.20;;
61702;SDS011;47622;47.726;3.298;2022-10-16T13:58:58;3.78;;;2.10;;
61702;SDS011;47622;47.726;3.298;2022-10-16T14:01:29;6.68;;;2.40;;
61702;SDS011;47622;47.726;3.298;2022-10-16T14:04:03;5.65;;;2.20;;
61702;SDS011;47622;47.726;3.298;2022-10-16T14:06:30;2.85;;;2.03;;
61702;SDS011;47622;47.726;3.298;2022-10-16T14:09:01;2.83;;;2.50;;
61702;SDS011;47622;47.726;3.298;2022-10-16T14:11:32;5.70;;;2.40;;
61702;SDS011;47622;47.726;3.298;2022-10-16T14:14:00;4.93;;;2.28;;
61702;SDS011;47622;47.726;3.298;2022-10-16T14:16:27;6.13;;;2.67;;
61702;SDS011;47622;47.726;3.298;2022-10-16T14:18:56;5.00;;;2.42;;
61702;SDS011;47622;47.726;3.298;2022-10-16T14:21:25;7.82;;;3.20;;
61702;SDS011;47622;47.726;3.298;2022-10-16T14:23:52;4.60;;;2.53;;
61702;SDS011;47622;47.726;3.298;2022-10-16T14:26:19;2.63;;;2.30;;
61702;SDS011;47622;47.726;3.298;2022-10-16T14:28:47;4.25;;;2.45;;
61702;SDS011;47622;47.726;3.298;2022-10-16T14:31:25;3.42;;;2.40;;
61702;SDS011;47622;47.726;3.298;2022-10-16T14:33:53;3.22;;;2.28;;
61702;SDS011;47622;47.726;3.298;2022-10-16T14:36:19;5.03;;;2.85;;
61702;SDS011;47622;47.726;3.298;2022-10-16T14:41:22;3.15;;;2.40;;
61702;SDS011;47622;47.726;3.298;2022-10-16T14:44:00;5.25;;;2.67;;
61702;SDS011;47622;47.726;3.298;2022-10-16T14:46:30;4.43;;;2.83;;
61702;SDS011;47622;47.726;3.298;2022-10-16T14:51:35;5.90;;;2.78;;
61702;SDS011;47622;47.726;3.298;2022-10-16T14:54:02;2.70;;;2.50;;
61702;SDS011;47622;47.726;3.298;2022-10-16T14:56:33;4.85;;;3.03;;
61702;SDS011;47622;47.726;3.298;2022-10-16T14:59:25;5.10;;;2.78;;
61702;SDS011;47622;47.726;3.298;2022-10-16T15:01:55;7.78;;;3.10;;
61702;SDS011;47622;47.726;3.298;2022-10-16T15:04:21;3.95;;;2.60;;
61702;SDS011;47622;47.726;3.298;2022-10-16T15:06:47;3.92;;;2.80;;
61702;SDS011;47622;47.726;3.298;2022-10-16T15:09:13;3.75;;;2.65;;
61702;SDS011;47622;47.726;3.298;2022-10-16T15:11:39;3.53;;;2.85;;
61702;SDS011;47622;47.726;3.298;2022-10-16T15:14:05;6.03;;;3.25;;
61702;SDS011;47622;47.726;3.298;2022-10-16T15:16:31;3.15;;;2.85;;
61702;SDS011;47622;47.726;3.298;2022-10-16T15:18:57;4.38;;;2.85;;
61702;SDS011;47622;47.726;3.298;2022-10-16T15:21:24;2.80;;;2.50;;
61702;SDS011;47622;47.726;3.298;2022-10-16T15:23:52;3.45;;;3.00;;
61702;SDS011;47622;47.726;3.298;2022-10-16T15:26:18;6.20;;;2.70;;
61702;SDS011;47622;47.726;3.298;2022-10-16T15:28:44;4.38;;;2.80;;
61702;SDS011;47622;47.726;3.298;2022-10-16T15:31:09;5.80;;;2.53;;
61702;SDS011;47622;47.726;3.298;2022-10-16T15:33:35;6.20;;;2.95;;
61702;SDS011;47622;47.726;3.298;2022-10-16T15:36:01;3.90;;;2.90;;
61702;SDS011;47622;47.726;3.298;2022-10-16T15:38:27;3.30;;;2.85;;
61702;SDS011;47622;47.726;3.298;2022-10-16T15:40:54;2.92;;;2.60;;
61702;SDS011;47622;47.726;3.298;2022-10-16T15:43:21;4.55;;;2.97;;
61702;SDS011;47622;47.726;3.298;2022-10-16T15:46:00;3.75;;;2.72;;
61702;SDS011;47622;47.726;3.298;2022-10-16T15:48:28;3.20;;;2.90;;
61702;SDS011;47622;47.726;3.298;2022-10-16T15:50:54;5.93;;;3.00;;
61702;SDS011;47622;47.726;3.298;2022-10-16T15:53:19;4.32;;;2.90;;
61702;SDS011;47622;47.726;3.298;2022-10-16T15:55:45;3.72;;;3.15;;
61702;SDS011;47622;47.726;3.298;2022-10-16T15:58:11;3.15;;;2.85;;
61702;SDS011;47622;47.726;3.298;2022-10-16T16:00:37;4.72;;;3.08;;
61702;SDS011;47622;47.726;3.298;2022-10-16T16:03:03;3.50;;;2.70;;
61702;SDS011;47622;47.726;3.298;2022-10-16T16:05:29;3.28;;;2.97;;
61702;SDS011;47622;47.726;3.298;2022-10-16T16:07:54;3.35;;;2.90;;
61702;SDS011;47622;47.726;3.298;2022-10-16T16:10:21;3.80;;;3.10;;
61702;SDS011;47622;47.726;3.298;2022-10-16T16:12:48;3.25;;;2.95;;
61702;SDS011;47622;47.726;3.298;2022-10-16T16:15:21;4.07;;;2.85;;
61702;SDS011;47622;47.726;3.298;2022-10-16T16:17:47;4.65;;;3.10;;
61702;SDS011;47622;47.726;3.298;2022-10-16T16:20:14;5.50;;;3.05;;
61702;SDS011;47622;47.726;3.298;2022-10-16T16:22:40;4.72;;;3.28;;
61702;SDS011;47622;47.726;3.298;2022-10-16T16:25:05;3.65;;;3.25;;
61702;SDS011;47622;47.726;3.298;2022-10-16T16:27:31;4.63;;;3.28;;
61702;SDS011;47622;47.726;3.298;2022-10-16T16:30:00;3.22;;;2.92;;
61702;SDS011;47622;47.726;3.298;2022-10-16T16:32:28;6.63;;;3.20;;
61702;SDS011;47622;47.726;3.298;2022-10-16T16:34:54;5.13;;;3.17;;
61702;SDS011;47622;47.726;3.298;2022-10-16T16:37:19;3.92;;;3.35;;
61702;SDS011;47622;47.726;3.298;2022-10-16T16:39:45;6.07;;;3.60;;
61702;SDS011;47622;47.726;3.298;2022-10-16T16:42:11;5.80;;;3.58;;
61702;SDS011;47622;47.726;3.298;2022-10-16T16:44:36;4.88;;;3.50;;
61702;SDS011;47622;47.726;3.298;2022-10-16T16:47:03;6.70;;;3.60;;
61702;SDS011;47622;47.726;3.298;2022-10-16T16:49:29;4.80;;;4.30;;
61702;SDS011;47622;47.726;3.298;2022-10-16T16:51:55;4.53;;;3.65;;
61702;SDS011;47622;47.726;3.298;2022-10-16T16:54:21;6.45;;;3.83;;
61702;SDS011;47622;47.726;3.298;2022-10-16T16:56:46;5.95;;;4.35;;
61702;SDS011;47622;47.726;3.298;2022-10-16T16:59:13;5.22;;;3.97;;
61702;SDS011;47622;47.726;3.298;2022-10-16T17:01:40;5.70;;;3.83;;
61702;SDS011;47622;47.726;3.298;2022-10-16T17:04:06;5.10;;;3.88;;
61702;SDS011;47622;47.726;3.298;2022-10-16T17:06:32;7.60;;;3.90;;
61702;SDS011;47622;47.726;3.298;2022-10-16T17:08:58;6.07;;;3.92;;